Airport View

Enter AWOS ICAO identifier for current METAR.

ex. KFNL

KPWA 191753Z 23007KT 10SM CLR 26/18 A2982 RMK AO2 SLP084 T02610183 10261 20189 58009

19 Jun 2019 18:47

Phone: 405-798-2013

Other Area AWOS: KHSD - KOKC - KRCE - KTIK

TAF KOKC 191725Z 1918/2018 26005KT P6SM SCT020 SCT100 TEMPO 1918/1920 BKN100 FM200400 14006KT P6SM SCT250